sensor_id;sensor_type;location;lat;lon;timestamp;pressure;altitude;pressure_sealevel;temperature;humidity
14383;BME280;7275;50.328;8.720;2023-03-15T00:01:10;99343.53;;;10.33;46.62
14383;BME280;7275;50.328;8.720;2023-03-15T00:03:40;99340.16;;;10.30;46.54
14383;BME280;7275;50.328;8.720;2023-03-15T00:06:08;99351.72;;;10.27;46.33
14383;BME280;7275;50.328;8.720;2023-03-15T00:08:36;99346.53;;;10.24;46.40
14383;BME280;7275;50.328;8.720;2023-03-15T00:11:04;99356.31;;;10.22;46.36
14383;BME280;7275;50.328;8.720;2023-03-15T00:13:32;99355.66;;;10.17;46.46
14383;BME280;7275;50.328;8.720;2023-03-15T00:16:01;99363.69;;;10.14;46.53
14383;BME280;7275;50.328;8.720;2023-03-15T00:18:31;99360.34;;;10.11;46.37
14383;BME280;7275;50.328;8.720;2023-03-15T00:20:59;99364.09;;;10.04;46.52
14383;BME280;7275;50.328;8.720;2023-03-15T00:23:27;99369.63;;;9.98;46.29
14383;BME280;7275;50.328;8.720;2023-03-15T00:25:56;99372.53;;;9.92;46.09
14383;BME280;7275;50.328;8.720;2023-03-15T00:28:24;99367.41;;;9.87;46.30
14383;BME280;7275;50.328;8.720;2023-03-15T00:31:02;99371.25;;;9.80;46.76
14383;BME280;7275;50.328;8.720;2023-03-15T00:33:31;99377.56;;;9.76;46.20
14383;BME280;7275;50.328;8.720;2023-03-15T00:36:02;99378.63;;;9.71;46.34
14383;BME280;7275;50.328;8.720;2023-03-15T00:38:31;99378.94;;;9.63;46.05
14383;BME280;7275;50.328;8.720;2023-03-15T00:41:03;99374.72;;;9.59;46.53
14383;BME280;7275;50.328;8.720;2023-03-15T00:43:31;99370.50;;;9.53;46.32
14383;BME280;7275;50.328;8.720;2023-03-15T00:45:59;99367.22;;;9.48;46.50
14383;BME280;7275;50.328;8.720;2023-03-15T00:48:26;99383.19;;;9.44;46.31
14383;BME280;7275;50.328;8.720;2023-03-15T00:51:03;99390.41;;;9.39;46.42
14383;BME280;7275;50.328;8.720;2023-03-15T00:53:31;99391.44;;;9.35;46.49
14383;BME280;7275;50.328;8.720;2023-03-15T00:56:03;99403.03;;;9.31;46.38
14383;BME280;7275;50.328;8.720;2023-03-15T00:58:31;99395.25;;;9.28;46.35
14383;BME280;7275;50.328;8.720;2023-03-15T01:00:58;99404.19;;;9.24;45.98
14383;BME280;7275;50.328;8.720;2023-03-15T01:03:27;99408.66;;;9.22;46.31
14383;BME280;7275;50.328;8.720;2023-03-15T01:05:54;99419.25;;;9.20;46.21
14383;BME280;7275;50.328;8.720;2023-03-15T01:08:23;99414.97;;;9.18;46.06
14383;BME280;7275;50.328;8.720;2023-03-15T01:10:50;99415.97;;;9.14;45.86
14383;BME280;7275;50.328;8.720;2023-03-15T01:13:18;99424.00;;;9.11;45.91
14383;BME280;7275;50.328;8.720;2023-03-15T01:15:46;99419.75;;;9.07;46.11
14383;BME280;7275;50.328;8.720;2023-03-15T01:18:13;99423.34;;;9.04;46.22
14383;BME280;7275;50.328;8.720;2023-03-15T01:20:42;99414.66;;;9.02;46.20
14383;BME280;7275;50.328;8.720;2023-03-15T01:23:10;99425.19;;;9.02;45.93
14383;BME280;7275;50.328;8.720;2023-03-15T01:25:39;99427.91;;;8.99;46.06
14383;BME280;7275;50.328;8.720;2023-03-15T01:28:06;99428.91;;;8.97;45.96
14383;BME280;7275;50.328;8.720;2023-03-15T01:30:34;99435.22;;;8.93;45.93
14383;BME280;7275;50.328;8.720;2023-03-15T01:33:01;99436.22;;;8.89;45.82
14383;BME280;7275;50.328;8.720;2023-03-15T01:35:29;99439.84;;;8.84;46.21
14383;BME280;7275;50.328;8.720;2023-03-15T01:37:56;99439.97;;;8.81;46.14
14383;BME280;7275;50.328;8.720;2023-03-15T01:40:24;99442.69;;;8.80;45.92
14383;BME280;7275;50.328;8.720;2023-03-15T01:43:13;99439.31;;;8.75;46.12
14383;BME280;7275;50.328;8.720;2023-03-15T01:46:00;99439.47;;;8.70;46.29
14383;BME280;7275;50.328;8.720;2023-03-15T01:48:33;99435.22;;;8.66;46.40
14383;BME280;7275;50.328;8.720;2023-03-15T01:51:05;99432.72;;;8.63;46.22
14383;BME280;7275;50.328;8.720;2023-03-15T01:53:37;99438.88;;;8.62;46.15
14383;BME280;7275;50.328;8.720;2023-03-15T01:56:06;99437.19;;;8.60;46.12
14383;BME280;7275;50.328;8.720;2023-03-15T01:58:37;99453.97;;;8.57;46.24
14383;BME280;7275;50.328;8.720;2023-03-15T02:01:05;99464.69;;;8.53;46.29
14383;BME280;7275;50.328;8.720;2023-03-15T02:03:35;99463.06;;;8.49;46.19
14383;BME280;7275;50.328;8.720;2023-03-15T02:06:07;99465.84;;;8.44;46.46
14383;BME280;7275;50.328;8.720;2023-03-15T02:08:38;99461.59;;;8.39;46.69
14383;BME280;7275;50.328;8.720;2023-03-15T02:11:09;99469.63;;;8.36;46.23
14383;BME280;7275;50.328;8.720;2023-03-15T02:13:39;99460.09;;;8.32;46.44
14383;BME280;7275;50.328;8.720;2023-03-15T02:16:07;99460.25;;;8.27;46.49
14383;BME280;7275;50.328;8.720;2023-03-15T02:18:35;99459.53;;;8.21;46.31
14383;BME280;7275;50.328;8.720;2023-03-15T02:21:09;99459.75;;;8.15;46.51
14383;BME280;7275;50.328;8.720;2023-03-15T02:23:40;99459.06;;;8.08;46.56
14383;BME280;7275;50.328;8.720;2023-03-15T02:26:16;99453.09;;;8.03;46.64
14383;BME280;7275;50.328;8.720;2023-03-15T02:28:48;99457.69;;;7.96;46.71
14383;BME280;7275;50.328;8.720;2023-03-15T02:31:16;99459.63;;;7.90;46.68
14383;BME280;7275;50.328;8.720;2023-03-15T02:33:46;99468.53;;;7.86;46.71
14383;BME280;7275;50.328;8.720;2023-03-15T02:36:18;99474.88;;;7.79;46.77
14383;BME280;7275;50.328;8.720;2023-03-15T02:38:46;99478.59;;;7.72;46.88
14383;BME280;7275;50.328;8.720;2023-03-15T02:41:19;99468.25;;;7.66;46.67
14383;BME280;7275;50.328;8.720;2023-03-15T02:43:51;99469.28;;;7.60;46.89
14383;BME280;7275;50.328;8.720;2023-03-15T02:46:21;99473.81;;;7.55;46.98
14383;BME280;7275;50.328;8.720;2023-03-15T02:48:50;99470.41;;;7.52;47.38
14383;BME280;7275;50.328;8.720;2023-03-15T02:51:22;99474.97;;;7.47;47.16
14383;BME280;7275;50.328;8.720;2023-03-15T02:53:49;99482.94;;;7.44;47.11
14383;BME280;7275;50.328;8.720;2023-03-15T02:56:17;99483.00;;;7.41;47.31
14383;BME280;7275;50.328;8.720;2023-03-15T02:58:44;99492.69;;;7.40;47.31
14383;BME280;7275;50.328;8.720;2023-03-15T03:01:14;99494.50;;;7.37;47.25
14383;BME280;7275;50.328;8.720;2023-03-15T03:03:44;99491.03;;;7.36;47.35
14383;BME280;7275;50.328;8.720;2023-03-15T03:06:14;99489.31;;;7.35;47.33
14383;BME280;7275;50.328;8.720;2023-03-15T03:08:42;99491.16;;;7.32;47.47
14383;BME280;7275;50.328;8.720;2023-03-15T03:11:12;99490.34;;;7.30;47.48
14383;BME280;7275;50.328;8.720;2023-03-15T03:13:40;99495.63;;;7.28;47.64
14383;BME280;7275;50.328;8.720;2023-03-15T03:16:08;99502.75;;;7.24;47.68
14383;BME280;7275;50.328;8.720;2023-03-15T03:18:37;99504.50;;;7.24;47.94
14383;BME280;7275;50.328;8.720;2023-03-15T03:21:06;99502.78;;;7.23;48.02
14383;BME280;7275;50.328;8.720;2023-03-15T03:23:35;99507.22;;;7.21;47.90
14383;BME280;7275;50.328;8.720;2023-03-15T03:26:03;99513.34;;;7.21;48.02
14383;BME280;7275;50.328;8.720;2023-03-15T03:28:37;99520.38;;;7.21;48.27
14383;BME280;7275;50.328;8.720;2023-03-15T03:31:05;99524.69;;;7.23;48.41
14383;BME280;7275;50.328;8.720;2023-03-15T03:33:32;99527.28;;;7.25;48.22
14383;BME280;7275;50.328;8.720;2023-03-15T03:36:01;99528.13;;;7.25;48.32
14383;BME280;7275;50.328;8.720;2023-03-15T03:38:29;99528.97;;;7.28;48.43
14383;BME280;7275;50.328;8.720;2023-03-15T03:40:57;99527.22;;;7.26;48.19
14383;BME280;7275;50.328;8.720;2023-03-15T03:43:24;99532.47;;;7.26;48.44
14383;BME280;7275;50.328;8.720;2023-03-15T03:45:51;99537.72;;;7.26;48.31
14383;BME280;7275;50.328;8.720;2023-03-15T03:48:19;99545.63;;;7.26;48.31
14383;BME280;7275;50.328;8.720;2023-03-15T03:50:47;99550.00;;;7.28;48.45
14383;BME280;7275;50.328;8.720;2023-03-15T03:53:15;99548.19;;;7.28;48.55
14383;BME280;7275;50.328;8.720;2023-03-15T03:55:43;99553.47;;;7.28;48.61
14383;BME280;7275;50.328;8.720;2023-03-15T03:58:11;99558.69;;;7.30;48.61
14383;BME280;7275;50.328;8.720;2023-03-15T04:00:39;99563.84;;;7.33;48.61
14383;BME280;7275;50.328;8.720;2023-03-15T04:03:07;99564.72;;;7.33;48.56
14383;BME280;7275;50.328;8.720;2023-03-15T04:05:35;99568.19;;;7.35;48.55
14383;BME280;7275;50.328;8.720;2023-03-15T04:08:03;99569.03;;;7.36;48.34
14383;BME280;7275;50.328;8.720;2023-03-15T04:10:32;99573.44;;;7.35;48.54
14383;BME280;7275;50.328;8.720;2023-03-15T04:13:00;99569.13;;;7.33;48.64
14383;BME280;7275;50.328;8.720;2023-03-15T04:15:28;99571.72;;;7.34;48.60
14383;BME280;7275;50.328;8.720;2023-03-15T04:17:56;99574.38;;;7.33;48.67
14383;BME280;7275;50.328;8.720;2023-03-15T04:20:25;99568.28;;;7.32;48.77
14383;BME280;7275;50.328;8.720;2023-03-15T04:22:53;99576.19;;;7.31;48.92
14383;BME280;7275;50.328;8.720;2023-03-15T04:25:20;99585.81;;;7.32;48.88
14383;BME280;7275;50.328;8.720;2023-03-15T04:27:53;99573.53;;;7.32;48.92
14383;BME280;7275;50.328;8.720;2023-03-15T04:30:24;99570.03;;;7.32;48.97
14383;BME280;7275;50.328;8.720;2023-03-15T04:32:53;99572.63;;;7.33;48.94
14383;BME280;7275;50.328;8.720;2023-03-15T04:35:25;99580.44;;;7.36;48.98
14383;BME280;7275;50.328;8.720;2023-03-15T04:37:53;99583.06;;;7.36;48.97
14383;BME280;7275;50.328;8.720;2023-03-15T04:40:22;99584.78;;;7.37;49.05
14383;BME280;7275;50.328;8.720;2023-03-15T04:42:50;99580.34;;;7.39;48.94
14383;BME280;7275;50.328;8.720;2023-03-15T04:45:22;99590.78;;;7.42;48.88
14383;BME280;7275;50.328;8.720;2023-03-15T04:47:50;99595.13;;;7.43;48.94
14383;BME280;7275;50.328;8.720;2023-03-15T04:50:19;99595.94;;;7.45;48.81
14383;BME280;7275;50.328;8.720;2023-03-15T04:52:47;99599.41;;;7.47;48.99
14383;BME280;7275;50.328;8.720;2023-03-15T04:55:15;99594.97;;;7.49;48.75
14383;BME280;7275;50.328;8.720;2023-03-15T04:57:43;99585.31;;;7.50;48.81
14383;BME280;7275;50.328;8.720;2023-03-15T05:00:11;99587.94;;;7.50;48.98
14383;BME280;7275;50.328;8.720;2023-03-15T05:02:40;99591.41;;;7.52;48.80
14383;BME280;7275;50.328;8.720;2023-03-15T05:05:09;99589.69;;;7.51;48.86
14383;BME280;7275;50.328;8.720;2023-03-15T05:07:38;99587.06;;;7.51;48.95
14383;BME280;7275;50.328;8.720;2023-03-15T05:10:06;99587.88;;;7.53;48.91
14383;BME280;7275;50.328;8.720;2023-03-15T05:12:33;99585.09;;;7.57;49.03
14383;BME280;7275;50.328;8.720;2023-03-15T05:15:01;99593.72;;;7.62;49.14
14383;BME280;7275;50.328;8.720;2023-03-15T05:17:29;99594.50;;;7.66;48.89
14383;BME280;7275;50.328;8.720;2023-03-15T05:20:00;99592.69;;;7.69;49.18
14383;BME280;7275;50.328;8.720;2023-03-15T05:22:32;99593.44;;;7.73;48.92
14383;BME280;7275;50.328;8.720;2023-03-15T05:24:59;99593.38;;;7.76;49.03
14383;BME280;7275;50.328;8.720;2023-03-15T05:27:27;99588.00;;;7.79;49.02
14383;BME280;7275;50.328;8.720;2023-03-15T05:29:54;99587.94;;;7.82;48.77
14383;BME280;7275;50.328;8.720;2023-03-15T05:32:22;99602.81;;;7.83;48.93
14383;BME280;7275;50.328;8.720;2023-03-15T05:34:52;99601.09;;;7.82;48.77
14383;BME280;7275;50.328;8.720;2023-03-15T05:37:22;99606.34;;;7.82;49.04
14383;BME280;7275;50.328;8.720;2023-03-15T05:39:49;99607.19;;;7.84;48.96
14383;BME280;7275;50.328;8.720;2023-03-15T05:42:17;99601.88;;;7.85;49.06
14383;BME280;7275;50.328;8.720;2023-03-15T05:44:50;99611.47;;;7.86;49.17
14383;BME280;7275;50.328;8.720;2023-03-15T05:47:18;99612.38;;;7.85;49.25
14383;BME280;7275;50.328;8.720;2023-03-15T05:49:45;99612.38;;;7.85;49.15
14383;BME280;7275;50.328;8.720;2023-03-15T05:52:13;99619.47;;;7.83;49.11
14383;BME280;7275;50.328;8.720;2023-03-15T05:54:42;99621.22;;;7.83;49.21
14383;BME280;7275;50.328;8.720;2023-03-15T05:57:10;99622.22;;;7.79;49.08
14383;BME280;7275;50.328;8.720;2023-03-15T05:59:37;99612.63;;;7.76;49.12
14383;BME280;7275;50.328;8.720;2023-03-15T06:02:05;99616.25;;;7.72;49.41
14383;BME280;7275;50.328;8.720;2023-03-15T06:04:33;99613.72;;;7.69;49.30
14383;BME280;7275;50.328;8.720;2023-03-15T06:07:01;99628.69;;;7.66;49.33
14383;BME280;7275;50.328;8.720;2023-03-15T06:09:29;99638.41;;;7.64;49.48
14383;BME280;7275;50.328;8.720;2023-03-15T06:11:58;99633.28;;;7.59;49.72
14383;BME280;7275;50.328;8.720;2023-03-15T06:14:25;99634.19;;;7.58;49.58
14383;BME280;7275;50.328;8.720;2023-03-15T06:16:53;99639.50;;;7.57;49.99
14383;BME280;7275;50.328;8.720;2023-03-15T06:19:21;99644.75;;;7.55;49.79
14383;BME280;7275;50.328;8.720;2023-03-15T06:21:49;99649.13;;;7.56;49.78
14383;BME280;7275;50.328;8.720;2023-03-15T06:24:16;99651.72;;;7.58;49.84
14383;BME280;7275;50.328;8.720;2023-03-15T06:26:44;99651.69;;;7.59;50.15
14383;BME280;7275;50.328;8.720;2023-03-15T06:29:13;99649.91;;;7.60;50.04
14383;BME280;7275;50.328;8.720;2023-03-15T06:31:42;99649.84;;;7.63;50.13
14383;BME280;7275;50.328;8.720;2023-03-15T06:34:09;99651.59;;;7.62;50.14
14383;BME280;7275;50.328;8.720;2023-03-15T06:36:37;99660.31;;;7.64;50.06
14383;BME280;7275;50.328;8.720;2023-03-15T06:39:04;99660.31;;;7.64;50.26
14383;BME280;7275;50.328;8.720;2023-03-15T06:41:32;99663.78;;;7.66;50.18
14383;BME280;7275;50.328;8.720;2023-03-15T06:43:59;99664.69;;;7.65;50.06
14383;BME280;7275;50.328;8.720;2023-03-15T06:46:28;99661.25;;;7.63;50.13
14383;BME280;7275;50.328;8.720;2023-03-15T06:48:56;99662.19;;;7.61;49.99
14383;BME280;7275;50.328;8.720;2023-03-15T06:51:23;99675.41;;;7.58;50.21
14383;BME280;7275;50.328;8.720;2023-03-15T06:53:51;99674.63;;;7.54;50.13
14383;BME280;7275;50.328;8.720;2023-03-15T06:56:18;99676.44;;;7.52;50.43
14383;BME280;7275;50.328;8.720;2023-03-15T06:58:46;99688.69;;;7.52;50.58
14383;BME280;7275;50.328;8.720;2023-03-15T07:01:14;99688.66;;;7.53;50.48
14383;BME280;7275;50.328;8.720;2023-03-15T07:03:43;99685.09;;;7.56;50.54
14383;BME280;7275;50.328;8.720;2023-03-15T07:06:11;99695.53;;;7.59;50.70
14383;BME280;7275;50.328;8.720;2023-03-15T07:08:38;99692.81;;;7.62;50.51
14383;BME280;7275;50.328;8.720;2023-03-15T07:11:06;99699.78;;;7.64;50.57
14383;BME280;7275;50.328;8.720;2023-03-15T07:13:33;99694.44;;;7.67;50.71
14383;BME280;7275;50.328;8.720;2023-03-15T07:16:01;99692.66;;;7.69;50.58
14383;BME280;7275;50.328;8.720;2023-03-15T07:18:28;99690.84;;;7.71;50.63
14383;BME280;7275;50.328;8.720;2023-03-15T07:20:58;99691.59;;;7.75;50.72
14383;BME280;7275;50.328;8.720;2023-03-15T07:23:26;99692.38;;;7.80;50.91
14383;BME280;7275;50.328;8.720;2023-03-15T07:25:54;99699.16;;;7.88;50.96
14383;BME280;7275;50.328;8.720;2023-03-15T07:28:23;99706.91;;;7.93;50.84
14383;BME280;7275;50.328;8.720;2023-03-15T07:30:52;99705.06;;;7.96;50.71
14383;BME280;7275;50.328;8.720;2023-03-15T07:33:20;99708.53;;;7.97;50.65
14383;BME280;7275;50.328;8.720;2023-03-15T07:35:48;99717.38;;;7.96;50.89
14383;BME280;7275;50.328;8.720;2023-03-15T07:38:18;99725.44;;;7.90;50.67
14383;BME280;7275;50.328;8.720;2023-03-15T07:40:46;99731.56;;;7.89;50.55
14383;BME280;7275;50.328;8.720;2023-03-15T07:43:13;99733.47;;;7.84;50.59
14383;BME280;7275;50.328;8.720;2023-03-15T07:45:41;99737.97;;;7.79;50.58
14383;BME280;7275;50.328;8.720;2023-03-15T07:48:09;99728.50;;;7.73;50.68
14383;BME280;7275;50.328;8.720;2023-03-15T07:50:37;99739.13;;;7.69;50.79
14383;BME280;7275;50.328;8.720;2023-03-15T07:53:05;99737.53;;;7.63;50.90
14383;BME280;7275;50.328;8.720;2023-03-15T07:55:35;99739.31;;;7.61;50.92
14383;BME280;7275;50.328;8.720;2023-03-15T07:58:02;99745.47;;;7.60;51.03
14383;BME280;7275;50.328;8.720;2023-03-15T08:00:31;99752.44;;;7.63;50.91
14383;BME280;7275;50.328;8.720;2023-03-15T08:02:59;99754.19;;;7.62;51.09
14383;BME280;7275;50.328;8.720;2023-03-15T08:05:26;99765.53;;;7.64;51.35
14383;BME280;7275;50.328;8.720;2023-03-15T08:07:54;99765.50;;;7.66;51.29
14383;BME280;7275;50.328;8.720;2023-03-15T08:10:22;99768.13;;;7.67;51.24
14383;BME280;7275;50.328;8.720;2023-03-15T08:12:51;99758.41;;;7.69;51.35
14383;BME280;7275;50.328;8.720;2023-03-15T08:15:20;99766.16;;;7.75;51.38
14383;BME280;7275;50.328;8.720;2023-03-15T08:17:48;99762.44;;;7.82;51.55
14383;BME280;7275;50.328;8.720;2023-03-15T08:20:16;99761.22;;;7.95;51.59
14383;BME280;7275;50.328;8.720;2023-03-15T08:22:44;99765.25;;;8.10;51.63
14383;BME280;7275;50.328;8.720;2023-03-15T08:25:13;99768.28;;;8.29;51.75
14383;BME280;7275;50.328;8.720;2023-03-15T08:27:41;99762.44;;;8.50;51.76
14383;BME280;7275;50.328;8.720;2023-03-15T08:30:13;99768.78;;;8.73;51.67
14383;BME280;7275;50.328;8.720;2023-03-15T08:32:42;99770.81;;;8.93;51.48
14383;BME280;7275;50.328;8.720;2023-03-15T08:35:11;99769.56;;;9.06;51.19
14383;BME280;7275;50.328;8.720;2023-03-15T08:37:41;99779.72;;;9.18;51.07
14383;BME280;7275;50.328;8.720;2023-03-15T08:40:13;99780.34;;;9.26;51.13
14383;BME280;7275;50.328;8.720;2023-03-15T08:42:40;99789.06;;;9.30;51.11
14383;BME280;7275;50.328;8.720;2023-03-15T08:45:09;99793.25;;;9.35;50.54
14383;BME280;7275;50.328;8.720;2023-03-15T08:47:38;99799.22;;;9.42;50.58
14383;BME280;7275;50.328;8.720;2023-03-15T08:50:07;99802.53;;;9.48;50.66
14383;BME280;7275;50.328;8.720;2023-03-15T08:52:36;99803.97;;;9.58;50.73
14383;BME280;7275;50.328;8.720;2023-03-15T08:55:04;99802.63;;;9.73;50.79
14383;BME280;7275;50.328;8.720;2023-03-15T08:57:32;99802.06;;;9.90;51.00
14383;BME280;7275;50.328;8.720;2023-03-15T09:00:00;99801.41;;;10.09;50.76
14383;BME280;7275;50.328;8.720;2023-03-15T09:02:35;99803.53;;;10.24;50.36
14383;BME280;7275;50.328;8.720;2023-03-15T09:05:04;99809.25;;;10.37;50.11
14383;BME280;7275;50.328;8.720;2023-03-15T09:07:33;99813.34;;;10.47;49.93
14383;BME280;7275;50.328;8.720;2023-03-15T09:10:00;99815.56;;;10.58;50.19
14383;BME280;7275;50.328;8.720;2023-03-15T09:12:31;99810.03;;;10.65;49.83
14383;BME280;7275;50.328;8.720;2023-03-15T09:14:58;99817.66;;;10.74;49.45
14383;BME280;7275;50.328;8.720;2023-03-15T09:17:26;99820.88;;;10.82;49.30
14383;BME280;7275;50.328;8.720;2023-03-15T09:19:53;99821.56;;;10.87;49.60
14383;BME280;7275;50.328;8.720;2023-03-15T09:22:22;99816.91;;;10.94;49.08
14383;BME280;7275;50.328;8.720;2023-03-15T09:25:05;99821.97;;;11.00;49.33
14383;BME280;7275;50.328;8.720;2023-03-15T09:27:33;99832.22;;;11.09;49.17
14383;BME280;7275;50.328;8.720;2023-03-15T09:30:02;99834.53;;;11.18;49.18
14383;BME280;7275;50.328;8.720;2023-03-15T09:32:29;99833.25;;;11.28;48.72
14383;BME280;7275;50.328;8.720;2023-03-15T09:35:02;99846.97;;;11.38;48.87
14383;BME280;7275;50.328;8.720;2023-03-15T09:37:31;99832.59;;;11.45;48.40
14383;BME280;7275;50.328;8.720;2023-03-15T09:39:59;99843.59;;;11.57;48.38
14383;BME280;7275;50.328;8.720;2023-03-15T09:42:45;99839.38;;;11.75;48.21
14383;BME280;7275;50.328;8.720;2023-03-15T09:45:26;99841.03;;;11.99;48.39
14383;BME280;7275;50.328;8.720;2023-03-15T09:47:59;99853.41;;;12.20;47.92
14383;BME280;7275;50.328;8.720;2023-03-15T09:50:32;99846.47;;;12.38;47.71
14383;BME280;7275;50.328;8.720;2023-03-15T09:53:05;99854.50;;;12.56;47.74
14383;BME280;7275;50.328;8.720;2023-03-15T09:55:38;99850.56;;;12.85;47.60
14383;BME280;7275;50.328;8.720;2023-03-15T09:58:10;99853.31;;;13.04;47.11
14383;BME280;7275;50.328;8.720;2023-03-15T10:00:40;99856.78;;;13.06;46.66
14383;BME280;7275;50.328;8.720;2023-03-15T10:03:15;99853.25;;;13.05;46.69
14383;BME280;7275;50.328;8.720;2023-03-15T10:05:46;99869.53;;;13.16;46.94
14383;BME280;7275;50.328;8.720;2023-03-15T10:08:18;99860.56;;;13.39;46.65
14383;BME280;7275;50.328;8.720;2023-03-15T10:10:50;99862.75;;;13.48;46.28
14383;BME280;7275;50.328;8.720;2023-03-15T10:13:38;99859.03;;;13.52;46.25
14383;BME280;7275;50.328;8.720;2023-03-15T10:16:19;99862.44;;;13.55;46.20
14383;BME280;7275;50.328;8.720;2023-03-15T10:18:58;99870.22;;;13.58;45.93
14383;BME280;7275;50.328;8.720;2023-03-15T10:21:37;99872.19;;;13.55;45.74
14383;BME280;7275;50.328;8.720;2023-03-15T10:24:15;99872.38;;;13.88;46.42
14383;BME280;7275;50.328;8.720;2023-03-15T10:26:44;99863.94;;;14.51;46.12
14383;BME280;7275;50.328;8.720;2023-03-15T10:29:15;99872.06;;;14.82;45.33
14383;BME280;7275;50.328;8.720;2023-03-15T10:31:44;99867.28;;;14.89;44.86
14383;BME280;7275;50.328;8.720;2023-03-15T10:34:14;99868.44;;;14.83;44.40
14383;BME280;7275;50.328;8.720;2023-03-15T10:36:47;99872.06;;;14.82;44.53
14383;BME280;7275;50.328;8.720;2023-03-15T10:39:16;99866.56;;;14.85;44.33
14383;BME280;7275;50.328;8.720;2023-03-15T10:41:46;99874.41;;;14.88;44.53
14383;BME280;7275;50.328;8.720;2023-03-15T10:44:17;99869.41;;;15.15;44.47
14383;BME280;7275;50.328;8.720;2023-03-15T10:46:59;99867.84;;;15.76;44.67
14383;BME280;7275;50.328;8.720;2023-03-15T10:49:43;99855.81;;;17.47;44.74
14383;BME280;7275;50.328;8.720;2023-03-15T10:52:25;99850.69;;;18.92;43.50
14383;BME280;7275;50.328;8.720;2023-03-15T10:54:54;99842.63;;;19.17;41.99
14383;BME280;7275;50.328;8.720;2023-03-15T10:57:33;99851.63;;;19.03;41.36
14383;BME280;7275;50.328;8.720;2023-03-15T11:00:05;99849.69;;;18.80;40.93
14383;BME280;7275;50.328;8.720;2023-03-15T11:02:35;99848.88;;;18.53;40.90
14383;BME280;7275;50.328;8.720;2023-03-15T11:05:15;99848.22;;;18.23;40.73
14383;BME280;7275;50.328;8.720;2023-03-15T11:07:53;99851.75;;;17.97;40.56
14383;BME280;7275;50.328;8.720;2023-03-15T11:10:23;99860.84;;;17.80;40.61
14383;BME280;7275;50.328;8.720;2023-03-15T11:13:10;99865.16;;;17.54;40.96
14383;BME280;7275;50.328;8.720;2023-03-15T11:15:38;99872.97;;;17.29;41.04
14383;BME280;7275;50.328;8.720;2023-03-15T11:18:16;99883.81;;;16.98;40.71
14383;BME280;7275;50.328;8.720;2023-03-15T11:20:43;99883.16;;;16.65;40.62
14383;BME280;7275;50.328;8.720;2023-03-15T11:23:14;99886.75;;;16.34;40.63
14383;BME280;7275;50.328;8.720;2023-03-15T11:25:44;99887.38;;;16.69;41.16
14383;BME280;7275;50.328;8.720;2023-03-15T11:28:16;99882.03;;;17.97;41.14
14383;BME280;7275;50.328;8.720;2023-03-15T11:30:45;99872.81;;;18.69;40.12
14383;BME280;7275;50.328;8.720;2023-03-15T11:33:24;99875.09;;;18.87;39.07
14383;BME280;7275;50.328;8.720;2023-03-15T11:35:54;99886.50;;;18.64;38.63
14383;BME280;7275;50.328;8.720;2023-03-15T11:38:30;99877.56;;;18.24;38.21
14383;BME280;7275;50.328;8.720;2023-03-15T11:41:04;99890.09;;;17.83;38.62
14383;BME280;7275;50.328;8.720;2023-03-15T11:43:47;99891.88;;;17.40;38.88
14383;BME280;7275;50.328;8.720;2023-03-15T11:46:21;99895.09;;;17.03;39.11
14383;BME280;7275;50.328;8.720;2023-03-15T11:48:56;99898.91;;;16.69;39.59
14383;BME280;7275;50.328;8.720;2023-03-15T11:51:30;99898.78;;;16.41;39.94
14383;BME280;7275;50.328;8.720;2023-03-15T11:54:04;99903.72;;;16.18;40.05
14383;BME280;7275;50.328;8.720;2023-03-15T11:56:48;99921.94;;;15.94;40.10
14383;BME280;7275;50.328;8.720;2023-03-15T11:59:20;99916.53;;;15.80;40.34
14383;BME280;7275;50.328;8.720;2023-03-15T12:01:54;99924.09;;;15.72;40.45
14383;BME280;7275;50.328;8.720;2023-03-15T12:04:50;99916.31;;;15.67;40.47
14383;BME280;7275;50.328;8.720;2023-03-15T12:07:29;99923.84;;;15.76;40.48
14383;BME280;7275;50.328;8.720;2023-03-15T12:10:19;99919.44;;;16.38;40.39
14383;BME280;7275;50.328;8.720;2023-03-15T12:12:56;99914.06;;;16.69;39.91
14383;BME280;7275;50.328;8.720;2023-03-15T12:15:45;99910.69;;;16.81;39.74
14383;BME280;7275;50.328;8.720;2023-03-15T12:18:17;99925.59;;;16.85;39.66
14383;BME280;7275;50.328;8.720;2023-03-15T12:20:50;99920.75;;;16.92;39.79
14383;BME280;7275;50.328;8.720;2023-03-15T12:23:28;99924.22;;;17.08;39.53
14383;BME280;7275;50.328;8.720;2023-03-15T12:25:58;99935.78;;;17.22;39.03
14383;BME280;7275;50.328;8.720;2023-03-15T12:28:35;99929.66;;;17.20;38.88
14383;BME280;7275;50.328;8.720;2023-03-15T12:31:04;99935.38;;;17.14;38.48
14383;BME280;7275;50.328;8.720;2023-03-15T12:33:43;99935.16;;;17.03;38.35
14383;BME280;7275;50.328;8.720;2023-03-15T12:36:18;99942.38;;;17.31;38.49
14383;BME280;7275;50.328;8.720;2023-03-15T12:38:59;99936.78;;;18.32;38.66
14383;BME280;7275;50.328;8.720;2023-03-15T12:41:36;99933.50;;;18.95;37.70
14383;BME280;7275;50.328;8.720;2023-03-15T12:44:22;99933.34;;;19.10;37.56
14383;BME280;7275;50.328;8.720;2023-03-15T12:46:57;99941.38;;;19.86;37.13
14383;BME280;7275;50.328;8.720;2023-03-15T12:49:32;99925.34;;;20.93;36.53
14383;BME280;7275;50.328;8.720;2023-03-15T12:52:01;99925.28;;;21.74;36.01
14383;BME280;7275;50.328;8.720;2023-03-15T12:54:36;99920.41;;;22.23;34.93
14383;BME280;7275;50.328;8.720;2023-03-15T12:57:05;99920.84;;;22.39;34.55
14383;BME280;7275;50.328;8.720;2023-03-15T12:59:45;99916.94;;;22.32;34.27
14383;BME280;7275;50.328;8.720;2023-03-15T13:02:28;99924.91;;;22.34;33.97
14383;BME280;7275;50.328;8.720;2023-03-15T13:05:21;99920.56;;;22.10;34.01
14383;BME280;7275;50.328;8.720;2023-03-15T13:08:05;99927.34;;;21.59;33.74
14383;BME280;7275;50.328;8.720;2023-03-15T13:11:01;99923.13;;;21.11;34.20
14383;BME280;7275;50.328;8.720;2023-03-15T13:13:45;99921.28;;;21.79;34.92
14383;BME280;7275;50.328;8.720;2023-03-15T13:16:25;99918.66;;;23.08;34.34
14383;BME280;7275;50.328;8.720;2023-03-15T13:19:01;99909.03;;;24.66;33.65
14383;BME280;7275;50.328;8.720;2023-03-15T13:21:34;99901.75;;;26.16;32.57
14383;BME280;7275;50.328;8.720;2023-03-15T13:24:09;99892.72;;;26.70;31.78
14383;BME280;7275;50.328;8.720;2023-03-15T13:26:46;99897.84;;;27.08;30.77
14383;BME280;7275;50.328;8.720;2023-03-15T13:29:21;99898.22;;;27.13;30.39
14383;BME280;7275;50.328;8.720;2023-03-15T13:32:00;99899.06;;;26.61;29.96
14383;BME280;7275;50.328;8.720;2023-03-15T13:34:30;99894.22;;;26.37;30.01
14383;BME280;7275;50.328;8.720;2023-03-15T13:36:59;99904.00;;;26.48;29.77